sim
Sign-in with your pilot id or email,
or register
Callsign
Passwort

Schedule Details

Flight Number: OEO2529
Departure: Marseille Provence Airport (LFML) at 16:50
Arrival: Munich Airport (EDDM) at 18:25

Weather Information
Getting current METAR information for LFML 210630Z AUTO VRB02KT CAVOK 20/17 Q1015 NOSIG
Getting current METAR information for EDDM 210620Z 00000KT CAVOK 09/09 Q1017 BECMG 09005KT

Schedule Frequency

Route Map